Time;durP1;ratioP1;P1;durP2;ratioP2;P2;SDS_P1;SDS_P2;PMS_P1;PMS_P2;Temp;Humidity;BMP_temperature;BMP_pressure;BME280_temperature;BME280_humidity;BME280_pressure;Samples;Min_cycle;Max_cycle;Signal;HPM_P1;HPM_P2
2022/11/19 00:01:46;;;;;;;27.92;12.55;;;;;;;5.72;100.00;100783.97;5019170;28;20107;-69
2022/11/19 00:04:12;;;;;;;30.73;12.27;;;;;;;5.70;100.00;100780.41;5016172;28;20075;-70
2022/11/19 00:06:37;;;;;;;26.02;12.88;;;;;;;5.65;100.00;100783.69;5027931;28;20026;-69
2022/11/19 00:09:04;;;;;;;25.17;12.77;;;;;;;5.60;100.00;100786.09;5029238;28;20481;-70
2022/11/19 00:14:14;;;;;;;27.52;11.77;;;;;;;5.55;100.00;100788.56;5016912;28;20398;-69
2022/11/19 00:16:40;;;;;;;25.70;13.52;;;;;;;5.53;100.00;100782.38;5029371;28;20380;-70
2022/11/19 00:19:06;;;;;;;28.17;13.85;;;;;;;5.47;100.00;100796.97;5028663;28;20437;-69
2022/11/19 00:21:31;;;;;;;29.45;13.07;;;;;;;5.45;100.00;100794.28;5022173;28;20105;-69
2022/11/19 00:23:57;;;;;;;31.15;14.10;;;;;;;5.49;100.00;100793.53;5022722;28;20037;-69
2022/11/19 00:26:22;;;;;;;31.42;12.75;;;;;;;5.34;100.00;100786.06;5028159;28;20084;-70
2022/11/19 00:28:48;;;;;;;26.73;13.43;;;;;;;5.43;100.00;100782.03;5015687;28;20034;-69
2022/11/19 00:31:14;;;;;;;27.40;11.73;;;;;;;5.43;100.00;100789.84;5031555;28;20032;-69
2022/11/19 00:33:41;;;;;;;26.90;13.88;;;;;;;5.32;100.00;100781.63;5016731;28;20447;-69
2022/11/19 00:36:09;;;;;;;29.50;14.02;;;;;;;5.33;100.00;100799.94;5025805;28;20026;-68
2022/11/19 00:38:35;;;;;;;32.38;16.15;;;;;;;5.32;100.00;100792.06;5015872;28;20410;-69
2022/11/19 00:41:00;;;;;;;33.88;14.30;;;;;;;5.26;100.00;100787.50;5015090;28;20033;-69
2022/11/19 00:46:14;;;;;;;29.00;14.10;;;;;;;5.20;100.00;100802.94;5015701;28;20485;-67
2022/11/19 00:48:40;;;;;;;26.85;13.10;;;;;;;5.13;100.00;100800.91;5023497;28;20091;-69
2022/11/19 00:51:07;;;;;;;31.05;15.15;;;;;;;5.18;100.00;100807.19;5018867;28;20033;-69
2022/11/19 00:53:32;;;;;;;27.77;13.38;;;;;;;5.17;100.00;100808.03;5019354;28;20022;-69
2022/11/19 00:56:07;;;;;;;31.08;14.45;;;;;;;5.17;100.00;100810.66;5016395;28;20025;-69
2022/11/19 00:58:32;;;;;;;33.33;14.65;;;;;;;5.17;100.00;100813.25;5021711;28;20482;-69
2022/11/19 01:00:58;;;;;;;30.23;14.77;;;;;;;5.10;100.00;100817.34;5019264;28;20033;-68
2022/11/19 01:03:24;;;;;;;36.88;15.38;;;;;;;5.05;100.00;100819.75;5018363;28;20507;-68
2022/11/19 01:05:50;;;;;;;29.13;13.38;;;;;;;5.01;100.00;100823.09;5014990;28;20034;-69
2022/11/19 01:08:16;;;;;;;35.38;15.40;;;;;;;5.08;100.00;100824.22;5016985;28;20109;-69
2022/11/19 01:10:42;;;;;;;34.38;15.70;;;;;;;5.07;100.00;100823.34;5014476;28;20036;-69
2022/11/19 01:15:51;;;;;;;36.03;16.33;;;;;;;4.98;100.00;100829.88;5014455;28;20585;-69
2022/11/19 01:18:18;;;;;;;38.72;17.25;;;;;;;4.99;100.00;100829.97;5019068;28;20030;-69
2022/11/19 01:20:44;;;;;;;36.40;16.92;;;;;;;4.94;100.00;100831.50;5019849;28;20038;-69
2022/11/19 01:23:09;;;;;;;45.38;18.20;;;;;;;4.90;100.00;100834.81;5014432;28;20716;-68
2022/11/19 01:25:35;;;;;;;41.47;18.23;;;;;;;4.90;100.00;100834.81;5017077;28;20087;-69
2022/11/19 01:28:01;;;;;;;43.05;18.17;;;;;;;4.86;100.00;100843.34;5021334;28;20033;-68
2022/11/19 01:30:26;;;;;;;40.13;17.50;;;;;;;4.83;100.00;100844.13;5016595;28;20036;-70
2022/11/19 01:32:52;;;;;;;38.15;18.38;;;;;;;4.81;100.00;100852.69;5026070;28;20037;-69
2022/11/19 01:35:17;;;;;;;48.42;19.05;;;;;;;4.73;100.00;100853.28;5024541;28;20454;-69
2022/11/19 01:37:42;;;;;;;48.58;19.23;;;;;;;4.69;100.00;100853.09;5021418;28;20056;-70
2022/11/19 01:40:09;;;;;;;43.17;18.85;;;;;;;4.66;100.00;100851.25;5019277;28;20048;-69
2022/11/19 01:42:50;;;;;;;40.80;17.05;;;;;;;4.65;100.00;100849.50;5022088;28;20041;-69
2022/11/19 01:45:42;;;;;;;38.15;16.58;;;;;;;4.59;100.00;100853.56;5015107;28;20370;-68
2022/11/19 01:48:11;;;;;;;39.05;18.23;;;;;;;4.51;100.00;100855.84;5018646;28;20117;-70
2022/11/19 01:50:39;;;;;;;39.72;17.45;;;;;;;4.49;100.00;100865.28;5014789;28;20034;-70
2022/11/19 01:53:08;;;;;;;36.03;16.33;;;;;;;4.42;100.00;100855.47;5015483;28;20025;-68
2022/11/19 01:55:34;;;;;;;39.05;18.10;;;;;;;4.47;100.00;100853.94;5031556;28;20060;-69
2022/11/19 01:58:02;;;;;;;44.53;17.83;;;;;;;4.46;100.00;100852.16;5020447;28;20096;-69
2022/11/19 02:00:28;;;;;;;47.58;18.90;;;;;;;4.49;100.00;100865.28;5025250;28;20025;-70
2022/11/19 02:02:53;;;;;;;45.95;19.73;;;;;;;4.50;100.00;100864.47;5032740;28;20033;-70
2022/11/19 02:05:19;;;;;;;41.85;19.45;;;;;;;4.51;100.00;100867.16;5024344;28;20034;-69
2022/11/19 02:07:51;;;;;;;50.25;20.58;;;;;;;4.47;100.00;100866.97;5021977;28;20045;-69
2022/11/19 02:10:17;;;;;;;54.13;19.67;;;;;;;4.40;100.00;100868.44;5027398;28;20033;-70
2022/11/19 02:13:13;;;;;;;42.67;18.67;;;;;;;4.32;100.00;100880.25;5026841;28;20093;-69
2022/11/19 02:15:59;;;;;;;45.58;19.50;;;;;;;4.28;100.00;100874.00;5008587;28;20076;-71
2022/11/19 02:18:41;;;;;;;51.88;19.30;;;;;;;4.31;100.00;100889.75;5021068;28;20698;-69
2022/11/19 02:21:37;;;;;;;46.55;19.42;;;;;;;4.27;100.00;100879.16;5023551;28;20022;-69
2022/11/19 02:24:20;;;;;;;54.72;19.75;;;;;;;4.29;100.00;100886.19;5014654;28;20072;-70
2022/11/19 02:27:37;;;;;;;51.47;20.63;;;;;;;4.25;100.00;100892.09;5015581;28;20025;-69
2022/11/19 02:30:05;;;;;;;51.22;20.15;;;;;;;4.25;100.00;100892.09;5018201;28;20041;-69
2022/11/19 02:32:42;;;;;;;49.83;19.60;;;;;;;4.25;100.00;100893.84;5023002;28;20088;-71
2022/11/19 02:35:23;;;;;;;47.08;20.15;;;;;;;4.17;100.00;100893.50;5014679;28;20033;-70
2022/11/19 02:38:29;;;;;;;44.33;19.70;;;;;;;4.13;100.00;100904.59;5015136;28;20029;-69
2022/11/19 02:47:11;;;;;;;40.72;18.13;;;;;;;4.01;100.00;100900.63;5010908;28;20556;-70
2022/11/19 02:49:43;;;;;;;39.90;19.13;;;;;;;3.97;100.00;100908.25;5017974;28;20033;-69
2022/11/19 02:52:10;;;;;;;37.38;17.90;;;;;;;3.90;100.00;100906.19;5020511;28;20116;-69
2022/11/19 02:54:35;;;;;;;38.53;17.25;;;;;;;3.94;100.00;100908.13;5025366;28;20025;-69
2022/11/19 02:57:02;;;;;;;47.67;19.33;;;;;;;3.94;100.00;100908.13;5030408;28;20129;-70
2022/11/19 03:05:03;;;;;;;41.83;18.95;;;;;;;3.85;100.00;100914.69;5023729;28;20595;-68
2022/11/19 03:07:29;;;;;;;46.65;19.27;;;;;;;3.83;100.00;100910.22;5013222;28;20101;-70
2022/11/19 03:09:57;;;;;;;47.00;20.00;;;;;;;3.83;100.00;100918.03;5018554;28;20157;-69
2022/11/19 03:12:38;;;;;;;41.65;18.65;;;;;;;3.86;100.00;100916.44;5014023;28;20132;-71
2022/11/19 03:18:09;;;;;;;37.40;18.20;;;;;;;3.79;100.00;100921.34;5013997;28;20244;-70
2022/11/19 03:20:47;;;;;;;38.22;18.50;;;;;;;3.77;100.00;100920.34;5015462;28;20028;-70
2022/11/19 03:23:28;;;;;;;43.15;18.30;;;;;;;3.73;100.00;100934.97;5012539;28;20030;-70
2022/11/19 03:25:57;;;;;;;44.22;19.67;;;;;;;3.77;100.00;100930.75;5017621;28;20338;-69
2022/11/19 03:28:33;;;;;;;38.88;19.23;;;;;;;3.78;100.00;100938.63;5015060;28;20037;-68
2022/11/19 03:31:00;;;;;;;47.45;22.00;;;;;;;3.72;100.00;100939.25;5015057;28;20079;-69
2022/11/19 03:33:31;;;;;;;41.92;19.55;;;;;;;3.72;100.00;100938.38;5016079;28;20105;-70
2022/11/19 03:36:02;;;;;;;39.92;18.48;;;;;;;3.72;100.00;100939.25;5017246;28;20038;-69
2022/11/19 03:38:41;;;;;;;38.85;19.45;;;;;;;3.70;100.00;100938.31;5019738;28;20052;-69
2022/11/19 03:41:10;;;;;;;38.50;19.27;;;;;;;3.71;100.00;100936.59;5012682;28;20058;-70
2022/11/19 03:43:40;;;;;;;40.83;20.65;;;;;;;3.72;100.00;100939.25;5016945;28;20045;-70
2022/11/19 03:46:13;;;;;;;40.08;18.88;;;;;;;3.71;100.00;100939.19;5011550;28;20125;-69
2022/11/19 03:48:41;;;;;;;33.53;18.70;;;;;;;3.59;100.00;100938.63;5017781;28;20024;-69
2022/11/19 03:51:12;;;;;;;41.08;19.38;;;;;;;3.64;100.00;100944.94;5017117;28;20100;-69
2022/11/19 03:53:38;;;;;;;38.75;19.85;;;;;;;3.62;100.00;100939.69;5012657;28;20105;-69
2022/11/19 03:56:08;;;;;;;39.97;20.88;;;;;;;3.63;100.00;100946.63;5026405;28;20504;-68
2022/11/19 03:58:39;;;;;;;47.92;20.48;;;;;;;3.66;100.00;100952.00;5019651;28;20037;-70
2022/11/19 04:01:04;;;;;;;43.60;20.10;;;;;;;3.67;100.00;100948.56;5012819;28;20061;-68
2022/11/19 04:03:30;;;;;;;41.08;20.00;;;;;;;3.67;100.00;100948.56;5014102;28;20024;-69
2022/11/19 04:05:55;;;;;;;43.90;21.23;;;;;;;3.63;100.00;100954.44;5012223;28;20018;-67
2022/11/19 04:08:20;;;;;;;43.17;21.02;;;;;;;3.62;100.00;100962.19;5017093;28;20113;-70
2022/11/19 04:10:46;;;;;;;41.53;21.40;;;;;;;3.56;100.00;100965.41;5012355;28;20032;-69
2022/11/19 04:13:11;;;;;;;42.05;21.63;;;;;;;3.50;100.00;100967.69;5014888;28;20060;-70
2022/11/19 04:15:36;;;;;;;46.17;22.13;;;;;;;3.45;100.00;100970.09;5032945;28;20507;-70
2022/11/19 04:18:02;;;;;;;44.65;21.73;;;;;;;3.44;100.00;100977.81;5019231;28;20040;-69
2022/11/19 04:20:27;;;;;;;41.80;19.95;;;;;;;3.43;100.00;100981.25;5023157;28;20030;-68
2022/11/19 04:22:52;;;;;;;45.78;22.05;;;;;;;3.29;100.00;100983.19;5015460;28;20058;-70
2022/11/19 04:25:18;;;;;;;43.88;23.20;;;;;;;3.33;100.00;100980.78;5024300;28;20374;-69
2022/11/19 04:27:46;;;;;;;44.72;22.35;;;;;;;3.34;100.00;100990.38;5019870;28;20022;-70
2022/11/19 04:30:12;;;;;;;45.72;23.17;;;;;;;3.29;100.00;100994.47;5015363;28;20034;-69
2022/11/19 04:32:38;;;;;;;45.60;22.40;;;;;;;3.28;100.00;100989.19;5018331;28;20026;-68
2022/11/19 04:35:03;;;;;;;45.70;23.33;;;;;;;3.25;100.00;101000.34;5015678;28;20045;-70
2022/11/19 04:37:29;;;;;;;43.28;21.65;;;;;;;3.25;100.00;100997.75;5024948;28;20478;-69
2022/11/19 04:39:54;;;;;;;48.45;23.20;;;;;;;3.22;100.00;101000.19;5019270;28;20017;-69
2022/11/19 04:42:19;;;;;;;48.22;22.83;;;;;;;3.18;100.00;101000.88;5020690;28;20030;-71
2022/11/19 04:44:45;;;;;;;50.88;23.95;;;;;;;3.10;100.00;100997.00;5027381;28;20041;-69
2022/11/19 04:47:10;;;;;;;45.83;22.75;;;;;;;3.07;100.00;101012.47;5021416;28;20029;-70
2022/11/19 04:49:35;;;;;;;49.45;24.42;;;;;;;2.95;100.00;101008.41;5019981;28;20041;-70
2022/11/19 04:52:00;;;;;;;49.45;26.30;;;;;;;2.88;100.00;101008.94;5015615;28;20057;-70
2022/11/19 04:54:26;;;;;;;46.55;24.13;;;;;;;2.93;100.00;101019.53;5017755;28;20057;-69
2022/11/19 04:56:51;;;;;;;46.92;24.08;;;;;;;2.94;100.00;101017.00;5016479;28;20057;-69
2022/11/19 04:59:16;;;;;;;45.58;24.30;;;;;;;2.87;100.00;101021.00;5035949;28;20033;-69
2022/11/19 05:01:42;;;;;;;51.97;27.05;;;;;;;2.79;100.00;101021.44;5022707;28;20414;-69
2022/11/19 05:04:08;;;;;;;52.30;25.70;;;;;;;2.77;100.00;101013.59;5015372;28;20113;-69
2022/11/19 05:06:33;;;;;;;48.80;25.33;;;;;;;2.80;100.00;101023.25;5015030;28;20061;-69
2022/11/19 05:08:59;;;;;;;44.75;22.63;;;;;;;2.79;100.00;101016.25;5014998;28;20096;-70
2022/11/19 05:11:24;;;;;;;45.78;24.08;;;;;;;2.75;100.00;101029.91;5016257;28;20117;-71
2022/11/19 05:13:49;;;;;;;48.30;24.58;;;;;;;2.80;100.00;101033.63;5014741;28;20438;-70
2022/11/19 05:16:15;;;;;;;45.75;23.90;;;;;;;2.59;100.00;101034.31;5019290;28;20025;-70
2022/11/19 05:18:40;;;;;;;48.95;25.27;;;;;;;2.63;100.00;101025.88;5018952;28;20100;-69
2022/11/19 05:21:05;;;;;;;46.67;23.95;;;;;;;2.67;100.00;101032.09;5014876;28;20405;-69
2022/11/19 05:23:31;;;;;;;44.33;24.25;;;;;;;2.63;100.00;101024.97;5023755;28;20057;-69
2022/11/19 05:25:56;;;;;;;46.00;24.48;;;;;;;2.65;100.00;101034.63;5019559;28;20021;-70
2022/11/19 05:28:21;;;;;;;47.10;23.90;;;;;;;2.51;100.00;101031.31;5020665;28;20108;-69
2022/11/19 05:30:47;;;;;;;41.72;22.75;;;;;;;2.54;100.00;101038.38;5018511;28;20036;-69
2022/11/19 05:33:12;;;;;;;42.42;23.63;;;;;;;2.47;100.00;101036.25;5015281;28;20108;-69
2022/11/19 05:35:37;;;;;;;46.78;23.92;;;;;;;2.48;100.00;101048.44;5014442;28;20032;-70
2022/11/19 05:38:03;;;;;;;46.63;22.48;;;;;;;2.44;100.00;101051.69;5020011;28;20022;-69
2022/11/19 05:40:28;;;;;;;45.55;23.05;;;;;;;2.44;100.00;101054.28;5026611;28;20034;-70
2022/11/19 05:42:53;;;;;;;40.33;21.58;;;;;;;2.36;100.00;101052.19;5014655;28;20029;-69
2022/11/19 05:45:19;;;;;;;44.35;22.85;;;;;;;2.29;100.00;101050.09;5021917;28;20104;-70
2022/11/19 05:47:44;;;;;;;43.72;22.10;;;;;;;2.32;100.00;101049.31;5015469;28;20029;-70
2022/11/19 05:50:10;;;;;;;46.17;22.48;;;;;;;2.26;100.00;101055.09;5023980;28;20474;-70
2022/11/19 05:52:35;;;;;;;41.67;21.48;;;;;;;2.27;100.00;101063.78;5022851;28;20454;-69
2022/11/19 05:55:01;;;;;;;41.38;21.75;;;;;;;2.31;100.00;101066.63;5028732;28;20034;-69
2022/11/19 05:57:28;;;;;;;44.25;22.65;;;;;;;2.24;100.00;101067.13;5025008;28;20057;-69
2022/11/19 05:59:53;;;;;;;43.70;23.55;;;;;;;2.22;100.00;101068.72;5029237;28;20024;-69
2022/11/19 06:02:18;;;;;;;40.42;22.35;;;;;;;2.18;100.00;101071.97;5014540;28;20026;-70
2022/11/19 06:04:44;;;;;;;43.03;22.17;;;;;;;2.22;100.00;101076.50;5015090;28;20033;-71
2022/11/19 06:07:09;;;;;;;39.35;19.90;;;;;;;2.14;100.00;101075.19;5013728;28;20036;-69
2022/11/19 06:09:34;;;;;;;38.15;20.52;;;;;;;2.10;100.00;101083.63;5032110;28;20034;-70
2022/11/19 06:12:00;;;;;;;40.67;20.42;;;;;;;2.09;100.00;101087.03;5017717;28;20032;-70
2022/11/19 06:14:26;;;;;;;41.50;22.92;;;;;;;2.09;100.00;101084.44;5014780;28;20090;-70
2022/11/19 06:16:54;;;;;;;37.33;20.80;;;;;;;2.13;100.00;101089.91;5015223;28;20017;-70
2022/11/19 06:19:20;;;;;;;41.88;21.38;;;;;;;2.19;100.00;101100.59;5014696;28;20033;-71
2022/11/19 06:21:46;;;;;;;39.97;22.02;;;;;;;2.11;100.00;101094.09;5013708;28;20109;-71
2022/11/19 06:24:12;;;;;;;39.85;21.48;;;;;;;2.16;100.00;101102.16;5021090;28;20469;-69
2022/11/19 06:26:38;;;;;;;36.03;20.10;;;;;;;2.02;100.00;101106.56;5017896;28;20103;-69
2022/11/19 06:29:03;;;;;;;34.40;19.27;;;;;;;1.99;100.00;101103.81;5013881;28;20057;-68
2022/11/19 06:31:28;;;;;;;40.67;21.67;;;;;;;2.07;100.00;101118.09;5017252;28;20419;-70
2022/11/19 06:33:54;;;;;;;38.47;20.20;;;;;;;2.00;100.00;101114.25;5013225;28;20045;-70
2022/11/19 06:36:20;;;;;;;37.53;20.48;;;;;;;1.97;100.00;101127.09;5013620;28;20061;-69
2022/11/19 06:38:45;;;;;;;36.85;20.10;;;;;;;1.90;100.00;101122.38;5016438;28;20025;-70
2022/11/19 06:41:11;;;;;;;39.47;21.23;;;;;;;1.90;100.00;101119.78;5017818;28;20036;-70
2022/11/19 06:43:36;;;;;;;40.38;19.92;;;;;;;1.95;100.00;101120.91;5013932;28;20104;-69
2022/11/19 06:46:02;;;;;;;37.83;19.27;;;;;;;1.93;100.00;101125.13;5014450;28;20032;-68
2022/11/19 06:48:27;;;;;;;38.50;19.73;;;;;;;1.89;100.00;101130.94;5020130;28;20025;-68
2022/11/19 06:50:52;;;;;;;38.30;20.08;;;;;;;1.82;100.00;101144.41;5023807;28;20029;-71
2022/11/19 06:53:17;;;;;;;36.03;19.58;;;;;;;1.86;100.00;101135.97;5022427;28;20446;-69
2022/11/19 06:55:43;;;;;;;32.50;18.60;;;;;;;1.80;100.00;101141.69;5017165;28;20104;-70
2022/11/19 06:58:08;;;;;;;30.40;16.85;;;;;;;1.85;100.00;101149.75;5023321;28;20425;-70
2022/11/19 07:00:34;;;;;;;35.58;18.05;;;;;;;1.83;100.00;101141.88;5015499;28;20390;-70
2022/11/19 07:03:01;;;;;;;39.35;19.15;;;;;;;1.78;100.00;101145.91;5015448;28;20446;-70
2022/11/19 07:05:26;;;;;;;36.40;18.83;;;;;;;1.68;100.00;101141.91;5027866;28;20029;-70
2022/11/19 07:07:52;;;;;;;36.50;18.52;;;;;;;1.78;100.00;101152.81;5029258;28;20076;-69
2022/11/19 07:10:17;;;;;;;34.78;20.48;;;;;;;1.63;100.00;101145.03;5021604;28;20034;-69
2022/11/19 07:12:42;;;;;;;34.45;18.10;;;;;;;1.70;100.00;101154.97;5031984;28;20049;-68
2022/11/19 07:15:09;;;;;;;34.05;17.23;;;;;;;1.75;100.00;101155.22;5013153;28;20113;-70
2022/11/19 07:17:34;;;;;;;38.08;19.83;;;;;;;1.69;100.00;101153.16;5020947;28;20029;-69
2022/11/19 07:19:59;;;;;;;35.90;18.27;;;;;;;1.66;100.00;101156.47;5014148;28;20068;-69
2022/11/19 07:22:26;;;;;;;34.65;19.77;;;;;;;1.64;100.00;101160.69;5016599;28;20033;-69
2022/11/19 07:24:51;;;;;;;35.78;18.65;;;;;;;1.64;100.00;101171.06;5016181;28;20049;-69
2022/11/19 07:27:16;;;;;;;36.03;18.42;;;;;;;1.67;100.00;101166.06;5014497;28;20072;-70
2022/11/19 07:29:42;;;;;;;38.30;18.83;;;;;;;1.63;100.00;101174.47;5025775;28;20132;-70
2022/11/19 07:32:07;;;;;;;35.63;17.88;;;;;;;1.56;100.00;101172.31;5012968;28;20022;-69
2022/11/19 07:34:32;;;;;;;37.45;19.33;;;;;;;1.62;100.00;101177.84;5015601;28;20040;-70
2022/11/19 07:36:58;;;;;;;36.72;18.75;;;;;;;1.54;100.00;101189.47;5031131;28;20034;-70
2022/11/19 07:39:23;;;;;;;33.60;17.27;;;;;;;1.63;100.00;101184.84;5025471;28;20166;-72
2022/11/19 07:44:33;;;;;;;;;;;;;;;1.66;100.00;101199.69;5016696;28;20048;-71
2022/11/19 07:46:58;;;;;;;35.22;17.75;;;;;;;1.71;100.00;101193.06;5027413;28;20441;-71
2022/11/19 07:49:26;;;;;;;33.28;18.50;;;;;;;1.66;100.00;101184.13;5026689;28;20045;-69
2022/11/19 07:51:52;;;;;;;33.90;17.63;;;;;;;1.68;100.00;101195.47;5020156;28;20014;-69
2022/11/19 07:54:18;;;;;;;36.00;20.45;;;;;;;1.66;100.00;101200.56;5025890;28;20654;-70
2022/11/19 07:56:43;;;;;;;34.80;17.98;;;;;;;1.69;100.00;101208.53;5017091;28;20029;-70
2022/11/19 07:59:09;;;;;;;33.90;16.52;;;;;;;1.69;100.00;101208.53;5029080;28;20013;-70
2022/11/19 08:01:35;;;;;;;34.80;18.83;;;;;;;1.76;100.00;101214.09;5028639;28;20033;-70
2022/11/19 08:04:01;;;;;;;35.15;18.92;;;;;;;1.72;100.00;101212.13;5037380;28;20040;-69
2022/11/19 08:06:27;;;;;;;34.70;19.45;;;;;;;1.76;100.00;101216.69;5035881;28;20069;-70
2022/11/19 08:08:55;;;;;;;34.10;17.55;;;;;;;1.76;100.00;101208.91;5036320;28;20128;-69
2022/11/19 08:11:21;;;;;;;35.13;18.67;;;;;;;1.78;100.00;101215.09;5030963;28;20025;-70
2022/11/19 08:13:47;;;;;;;38.72;19.08;;;;;;;1.75;100.00;101220.06;5016254;28;20029;-70
2022/11/19 08:18:10;;;;;;;36.38;18.27;;;;;;;1.74;100.00;101223.50;5019799;28;20033;-69
2022/11/19 08:19:08;;;;;;;34.65;17.75;;;;;;;1.73;100.00;101225.19;5027739;28;20026;-70
2022/11/19 08:21:34;;;;;;;33.70;17.98;;;;;;;1.76;100.00;101232.25;5029609;28;20037;-71
2022/11/19 08:24:00;;;;;;;36.45;17.88;;;;;;;1.68;100.00;101232.69;5015933;28;20044;-71
2022/11/19 08:26:25;;;;;;;35.25;17.92;;;;;;;1.75;100.00;101236.56;5018053;28;20026;-69
2022/11/19 08:28:50;;;;;;;35.80;18.50;;;;;;;1.79;100.00;101242.78;5031661;28;20385;-70
2022/11/19 08:31:16;;;;;;;36.10;17.70;;;;;;;1.77;100.00;101240.13;5033751;28;20032;-69
2022/11/19 08:33:41;;;;;;;34.25;17.48;;;;;;;1.85;100.00;101238.84;5033735;28;20163;-67
2022/11/19 08:36:07;;;;;;;30.33;17.00;;;;;;;1.82;100.00;101248.19;5020201;28;20034;-70
2022/11/19 08:38:32;;;;;;;31.98;17.10;;;;;;;1.79;100.00;101254.09;5022556;28;20108;-70
2022/11/19 08:43:41;;;;;;;32.67;17.58;;;;;;;1.95;100.00;101242.88;5024782;28;20095;-71
2022/11/19 08:46:07;;;;;;;29.50;17.13;;;;;;;1.94;100.00;101233.31;5035832;28;20013;-70
2022/11/19 08:48:33;;;;;;;32.70;17.55;;;;;;;1.92;100.00;101242.69;5023336;28;20167;-70
2022/11/19 08:51:03;;;;;;;31.85;16.35;;;;;;;1.91;100.00;101250.41;5027943;28;20101;-70
2022/11/19 08:53:28;;;;;;;30.02;16.65;;;;;;;1.98;100.00;101256.06;5049346;28;20047;-69
2022/11/19 08:55:53;;;;;;;31.65;16.80;;;;;;;1.92;100.00;101260.00;5055414;28;20104;-71
2022/11/19 08:58:19;;;;;;;32.65;17.77;;;;;;;1.83;100.00;101261.25;5031386;28;20045;-70
2022/11/19 09:00:44;;;;;;;28.77;16.10;;;;;;;1.85;100.00;101264.81;5024719;28;20478;-69
2022/11/19 09:03:10;;;;;;;30.65;16.70;;;;;;;1.94;100.00;101268.75;5016879;28;20108;-69
2022/11/19 09:05:36;;;;;;;29.52;15.88;;;;;;;1.94;100.00;101280.03;5018219;28;20454;-70
2022/11/19 09:08:01;;;;;;;31.40;16.10;;;;;;;1.89;100.00;101276.28;5033282;28;20029;-71
2022/11/19 09:10:26;;;;;;;30.20;15.57;;;;;;;1.79;100.00;101273.94;5015338;28;20100;-68
2022/11/19 09:12:52;;;;;;;35.22;16.98;;;;;;;1.87;100.00;101275.28;5015103;28;20040;-69
2022/11/19 09:15:18;;;;;;;31.50;15.98;;;;;;;1.95;100.00;101271.41;5015769;28;20025;-68
2022/11/19 09:17:44;;;;;;;29.55;16.85;;;;;;;1.92;100.00;101276.44;5019580;28;20454;-69
2022/11/19 09:20:09;;;;;;;29.40;15.80;;;;;;;1.93;100.00;101278.25;5039806;28;20040;-68
2022/11/19 09:22:35;;;;;;;31.30;16.98;;;;;;;1.93;100.00;101291.22;5033426;28;20090;-68
2022/11/19 09:25:00;;;;;;;35.28;17.58;;;;;;;2.01;100.00;101291.69;5033145;28;20041;-69
2022/11/19 09:27:26;;;;;;;30.92;16.08;;;;;;;1.99;100.00;101291.59;5025542;28;20029;-69
2022/11/19 09:29:51;;;;;;;30.23;15.75;;;;;;;2.02;100.00;101294.34;5023835;28;20485;-70
2022/11/19 09:32:16;;;;;;;27.73;15.43;;;;;;;1.97;100.00;101295.78;5030132;28;20056;-68
2022/11/19 09:34:42;;;;;;;32.13;15.95;;;;;;;1.91;100.00;101305.78;5038500;28;20410;-68
2022/11/19 09:37:08;;;;;;;35.97;18.02;;;;;;;1.79;100.00;101294.69;5030692;28;20557;-69
2022/11/19 09:39:33;;;;;;;27.65;16.38;;;;;;;1.82;100.00;101294.88;5037041;28;20088;-70
2022/11/19 09:42:22;;;;;;;32.38;16.38;;;;;;;1.76;100.00;101304.88;5045271;28;20369;-69
2022/11/19 09:45:08;;;;;;;30.40;18.38;;;;;;;1.75;100.00;101305.69;5020043;28;20350;-68
2022/11/19 09:47:52;;;;;;;27.98;15.75;;;;;;;1.69;100.00;101314.88;5033388;28;20469;-69
2022/11/19 09:50:21;;;;;;;34.33;17.35;;;;;;;1.68;100.00;101320.00;5032525;28;20508;-68
2022/11/19 09:52:59;;;;;;;26.20;14.57;;;;;;;1.77;100.00;101328.31;5025098;28;20022;-68
2022/11/19 09:55:46;;;;;;;31.08;16.85;;;;;;;1.57;100.00;101326.25;5019448;28;20091;-69
2022/11/19 09:58:17;;;;;;;27.17;15.02;;;;;;;1.52;100.00;101331.16;5014465;28;20053;-71
2022/11/19 10:00:44;;;;;;;32.78;17.25;;;;;;;1.54;100.00;101334.72;5021693;28;20034;-69
2022/11/19 10:03:16;;;;;;;30.65;15.00;;;;;;;1.57;100.00;101334.91;5029208;28;20063;-69
2022/11/19 10:05:59;;;;;;;30.17;15.63;;;;;;;1.58;100.00;101336.69;5039079;28;20108;-70
2022/11/19 10:08:43;;;;;;;27.40;15.73;;;;;;;1.57;100.00;101349.56;5031210;28;20473;-70
2022/11/19 10:11:28;;;;;;;29.77;15.80;;;;;;;1.60;100.00;101345.50;5032773;28;20677;-69
2022/11/19 10:13:59;;;;;;;33.25;16.85;;;;;;;1.57;100.00;101341.78;5032023;28;20017;-69
2022/11/19 10:16:40;;;;;;;33.42;17.63;;;;;;;1.55;100.00;101339.13;5033091;28;20034;-69
2022/11/19 10:19:54;;;;;;;28.95;15.25;;;;;;;1.54;100.00;101333.84;5032681;28;20033;-68
2022/11/19 10:22:53;;;;;;;30.90;15.70;;;;;;;1.62;100.00;101345.56;5011706;28;20504;-68
2022/11/19 10:25:37;;;;;;;28.90;15.57;;;;;;;1.66;100.00;101342.38;5013895;28;20509;-68
2022/11/19 10:28:11;;;;;;;31.42;16.00;;;;;;;1.63;100.00;101344.78;5013755;28;20087;-69
2022/11/19 10:30:39;;;;;;;25.85;14.18;;;;;;;1.66;100.00;101339.78;5013782;28;20145;-69
2022/11/19 10:33:15;;;;;;;30.65;16.63;;;;;;;1.63;100.00;101337.88;5022771;28;20066;-68
2022/11/19 10:35:49;;;;;;;31.23;15.65;;;;;;;1.62;100.00;101337.78;5033563;28;20108;-68
2022/11/19 10:38:30;;;;;;;;;;;;;;;1.47;100.00;101340.34;5033741;28;20533;-68
2022/11/19 10:41:11;;;;;;;31.15;15.77;;;;;;;1.44;100.00;101343.66;5033227;28;19924;-68
2022/11/19 10:44:06;;;;;;;29.20;16.67;;;;;;;1.54;100.00;101332.13;5033400;28;20029;-69
2022/11/19 10:46:31;;;;;;;27.58;15.05;;;;;;;1.50;100.00;101331.03;5033051;28;20469;-69
2022/11/19 10:48:59;;;;;;;34.22;17.13;;;;;;;1.54;100.00;101333.84;5013642;28;20036;-68
2022/11/19 10:51:29;;;;;;;33.60;15.20;;;;;;;1.59;100.00;101333.31;5013208;28;20450;-68
2022/11/19 10:53:56;;;;;;;31.48;17.77;;;;;;;1.55;100.00;101333.94;5013196;28;20034;-70
2022/11/19 10:56:28;;;;;;;29.27;15.73;;;;;;;1.52;100.00;101334.63;5013344;28;20033;-68
2022/11/19 10:59:00;;;;;;;33.92;16.42;;;;;;;1.55;100.00;101323.56;5013005;28;20046;-71
2022/11/19 11:01:32;;;;;;;27.75;15.23;;;;;;;1.66;100.00;101311.22;5012283;28;20049;-68
2022/11/19 11:04:10;;;;;;;30.40;15.93;;;;;;;1.69;100.00;101307.09;5013113;28;20030;-69
2022/11/19 11:06:48;;;;;;;32.78;17.10;;;;;;;1.76;100.00;101305.78;5013650;28;20658;-68
2022/11/19 11:09:26;;;;;;;26.95;15.40;;;;;;;1.92;100.00;101307.59;5012830;28;20038;-68
2022/11/19 11:14:51;;;;;;;28.30;15.13;;;;;;;1.91;100.00;101304.91;5013528;28;20131;-69
2022/11/19 11:17:20;;;;;;;23.38;13.68;;;;;;;2.07;100.00;101317.09;5018871;28;20456;-69
2022/11/19 11:20:06;;;;;;;29.02;14.95;;;;;;;2.14;100.00;101320.16;5017758;28;20057;-68
2022/11/19 11:22:32;;;;;;;28.67;16.27;;;;;;;2.30;100.00;101321.91;5011649;28;20113;-69
2022/11/19 11:24:59;;;;;;;25.60;15.10;;;;;;;2.30;100.00;101311.50;5012430;28;20061;-69
2022/11/19 11:27:33;;;;;;;29.13;16.20;;;;;;;2.45;100.00;101314.09;5012914;28;20033;-69
2022/11/19 11:30:10;;;;;;;25.60;13.88;;;;;;;2.34;100.00;101310.00;5012879;28;20026;-70
2022/11/19 11:32:37;;;;;;;28.80;14.65;;;;;;;2.34;100.00;101317.78;5013339;28;20038;-69
2022/11/19 11:35:03;;;;;;;27.38;14.05;;;;;;;2.32;100.00;101309.91;5012805;28;20032;-69
2022/11/19 11:37:29;;;;;;;23.48;14.20;;;;;;;2.38;100.00;101311.97;5012944;28;20022;-69
2022/11/19 11:39:56;;;;;;;22.48;13.20;;;;;;;2.34;100.00;101320.38;5013086;28;20397;-70
2022/11/19 11:42:27;;;;;;;22.33;13.45;;;;;;;2.38;100.00;101308.47;5013057;28;20385;-68
2022/11/19 11:44:56;;;;;;;22.58;13.57;;;;;;;2.41;100.00;101314.72;5012740;28;20052;-70
2022/11/19 11:47:27;;;;;;;22.50;12.63;;;;;;;2.46;100.00;101307.22;5012346;28;20037;-69
2022/11/19 11:50:16;;;;;;;21.98;13.85;;;;;;;2.42;100.00;101302.66;5012722;28;20028;-69